createdAt,value
2023-08-14T00:01:27.603Z,99.90
2023-08-14T00:03:54.616Z,99.90
2023-08-14T00:06:21.455Z,99.90
2023-08-14T00:08:48.227Z,99.90
2023-08-14T00:11:15.014Z,99.90
2023-08-14T00:13:56.060Z,99.90
2023-08-14T00:16:24.592Z,99.90
2023-08-14T00:18:51.699Z,99.90
2023-08-14T00:21:18.587Z,99.90
2023-08-14T00:23:45.441Z,99.90
2023-08-14T00:26:15.979Z,99.90
2023-08-14T00:28:42.816Z,99.90
2023-08-14T00:31:09.850Z,99.90
2023-08-14T00:33:36.700Z,99.90
2023-08-14T00:36:03.720Z,99.90
2023-08-14T00:38:30.529Z,99.90
2023-08-14T00:40:57.380Z,99.90
2023-08-14T00:43:24.571Z,99.90
2023-08-14T00:45:55.377Z,99.90
2023-08-14T00:48:22.681Z,99.90
2023-08-14T00:50:49.538Z,99.90
2023-08-14T00:53:18.502Z,99.90
2023-08-14T00:56:26.164Z,99.90
2023-08-14T00:58:52.993Z,99.90
2023-08-14T01:01:20.108Z,99.90
2023-08-14T01:03:47.604Z,99.90
2023-08-14T01:06:14.476Z,99.90
2023-08-14T01:08:41.797Z,99.90
2023-08-14T01:11:24.659Z,99.90
2023-08-14T01:14:26.413Z,99.90
2023-08-14T01:16:58.608Z,99.90
2023-08-14T01:19:35.562Z,99.90
2023-08-14T01:22:06.163Z,99.90
2023-08-14T01:24:32.904Z,99.90
2023-08-14T01:27:00.863Z,99.90
2023-08-14T01:29:31.445Z,99.90
2023-08-14T01:31:58.286Z,99.90
2023-08-14T01:34:25.437Z,99.90
2023-08-14T01:37:16.695Z,99.90
2023-08-14T01:39:49.524Z,99.90
2023-08-14T01:42:23.757Z,99.90
2023-08-14T01:44:54.331Z,99.90
2023-08-14T01:47:35.971Z,99.90
2023-08-14T01:50:03.577Z,99.90
2023-08-14T01:53:08.703Z,99.90
2023-08-14T01:55:39.572Z,99.90
2023-08-14T01:58:09.565Z,99.90
2023-08-14T02:00:37.432Z,99.90
2023-08-14T02:03:04.904Z,99.90
2023-08-14T02:05:31.706Z,99.90
2023-08-14T02:07:58.475Z,99.90
2023-08-14T02:10:25.294Z,99.90
2023-08-14T02:12:52.013Z,99.90
2023-08-14T02:15:18.846Z,99.90
2023-08-14T02:17:45.632Z,99.90
2023-08-14T02:20:12.608Z,99.90
2023-08-14T02:22:39.405Z,99.90
2023-08-14T02:25:06.354Z,99.90
2023-08-14T02:27:33.168Z,99.90
2023-08-14T02:30:00.147Z,99.90
2023-08-14T02:32:26.934Z,99.90
2023-08-14T02:34:59.553Z,99.90
2023-08-14T02:37:26.292Z,99.90
2023-08-14T02:39:54.054Z,99.90
2023-08-14T02:42:21.745Z,99.90
2023-08-14T02:44:49.057Z,99.90
2023-08-14T02:47:15.806Z,99.90
2023-08-14T02:49:42.672Z,99.90
2023-08-14T02:52:09.473Z,99.90
2023-08-14T02:54:36.282Z,99.90
2023-08-14T02:57:03.166Z,99.90
2023-08-14T02:59:29.976Z,99.90
2023-08-14T03:01:56.894Z,99.90
2023-08-14T03:04:43.394Z,99.90
2023-08-14T03:07:10.192Z,99.90
2023-08-14T03:09:37.003Z,99.90
2023-08-14T03:12:04.042Z,99.90
2023-08-14T03:14:30.781Z,99.90
2023-08-14T03:16:57.551Z,99.90
2023-08-14T03:19:24.368Z,99.90
2023-08-14T03:21:53.972Z,99.90
2023-08-14T03:24:20.730Z,99.90
2023-08-14T03:26:47.745Z,99.90
2023-08-14T03:29:14.588Z,99.90
2023-08-14T03:31:41.486Z,99.90
2023-08-14T03:34:08.270Z,99.90
2023-08-14T03:36:35.047Z,99.90
2023-08-14T03:39:01.848Z,99.90
2023-08-14T03:41:28.651Z,99.90
2023-08-14T03:44:26.765Z,99.90
2023-08-14T03:46:53.632Z,99.90
2023-08-14T03:49:20.414Z,99.90
2023-08-14T03:51:47.196Z,99.90
2023-08-14T03:54:56.745Z,99.90
2023-08-14T03:57:23.633Z,99.90
2023-08-14T03:59:57.199Z,99.90
2023-08-14T04:02:23.920Z,99.90
2023-08-14T04:05:06.010Z,99.90
2023-08-14T04:07:33.000Z,99.90
2023-08-14T04:09:59.852Z,99.90
2023-08-14T04:12:26.635Z,99.90
2023-08-14T04:14:53.635Z,99.90
2023-08-14T04:17:20.415Z,99.90
2023-08-14T04:19:47.151Z,99.90
2023-08-14T04:22:13.951Z,99.90
2023-08-14T04:24:43.813Z,99.90
2023-08-14T04:27:10.555Z,99.90
2023-08-14T04:29:37.329Z,99.90
2023-08-14T04:32:04.276Z,99.90
2023-08-14T04:34:31.101Z,99.90
2023-08-14T04:36:57.865Z,99.90
2023-08-14T04:39:24.629Z,99.90
2023-08-14T04:41:51.383Z,99.90
2023-08-14T04:44:18.126Z,99.90
2023-08-14T04:47:00.167Z,99.90
2023-08-14T04:49:29.886Z,99.90
2023-08-14T04:51:57.668Z,99.90
2023-08-14T04:54:24.605Z,99.90
2023-08-14T04:56:51.350Z,99.90
2023-08-14T04:59:19.136Z,99.90
2023-08-14T05:02:27.924Z,99.90
2023-08-14T05:04:57.829Z,99.90
2023-08-14T05:07:28.123Z,99.90
2023-08-14T05:13:45.701Z,99.90
2023-08-14T05:16:40.759Z,99.90
2023-08-14T05:19:10.901Z,99.90
2023-08-14T05:21:40.793Z,99.90
2023-08-14T05:24:07.974Z,99.90
2023-08-14T05:26:35.886Z,99.90
2023-08-14T05:29:02.834Z,99.90
2023-08-14T05:31:29.687Z,99.90
2023-08-14T05:33:56.492Z,99.90
2023-08-14T05:36:23.290Z,99.90
2023-08-14T05:38:50.616Z,99.90
2023-08-14T05:41:18.105Z,99.90
2023-08-14T05:43:44.848Z,99.90
2023-08-14T05:46:11.730Z,99.90
2023-08-14T05:48:52.784Z,99.90
2023-08-14T05:51:19.683Z,99.90
2023-08-14T05:53:46.578Z,99.90
2023-08-14T05:56:13.459Z,99.90
2023-08-14T05:58:40.213Z,99.90
2023-08-14T06:01:07.057Z,99.90
2023-08-14T06:03:44.058Z,99.90
2023-08-14T06:06:12.195Z,99.90
2023-08-14T06:08:38.936Z,99.90
2023-08-14T06:11:05.768Z,99.90
2023-08-14T06:13:32.988Z,99.90
2023-08-14T06:15:59.873Z,99.90
2023-08-14T06:18:26.785Z,99.90
2023-08-14T06:20:53.662Z,99.90
2023-08-14T06:23:20.582Z,99.90
2023-08-14T06:25:47.533Z,99.90
2023-08-14T06:28:14.297Z,99.90
2023-08-14T06:30:41.627Z,99.90
2023-08-14T06:33:09.625Z,99.90
2023-08-14T06:35:36.460Z,99.90
2023-08-14T06:38:03.613Z,99.90
2023-08-14T06:40:30.333Z,99.90
2023-08-14T06:42:57.175Z,99.90
2023-08-14T06:45:23.992Z,99.90
2023-08-14T06:47:50.758Z,99.90
2023-08-14T06:50:17.602Z,99.90
2023-08-14T06:52:44.357Z,99.90
2023-08-14T06:55:11.197Z,99.90
2023-08-14T06:57:38.004Z,99.90
2023-08-14T07:00:09.779Z,98.40
2023-08-14T07:02:36.634Z,97.30
2023-08-14T07:05:03.541Z,95.70
2023-08-14T07:07:31.311Z,94.70
2023-08-14T07:09:58.034Z,94.60
2023-08-14T07:12:24.820Z,94.80
2023-08-14T07:14:51.886Z,93.90
2023-08-14T07:17:18.814Z,92.40
2023-08-14T07:19:45.619Z,91.70
2023-08-14T07:22:13.378Z,90.80
2023-08-14T07:24:40.205Z,90.00
2023-08-14T07:27:07.016Z,89.10
2023-08-14T07:29:36.142Z,88.00
2023-08-14T07:32:03.320Z,88.20
2023-08-14T07:34:30.090Z,89.10
2023-08-14T07:36:57.048Z,87.10
2023-08-14T07:39:24.944Z,86.20
2023-08-14T07:41:51.801Z,85.00
2023-08-14T07:44:18.590Z,84.30
2023-08-14T07:46:45.342Z,82.80
2023-08-14T07:49:12.196Z,82.00
2023-08-14T07:51:38.951Z,78.70
2023-08-14T07:54:05.686Z,77.60
2023-08-14T07:56:32.490Z,74.10
2023-08-14T07:58:59.248Z,74.00
2023-08-14T08:01:26.245Z,74.20
2023-08-14T08:03:53.121Z,74.70
2023-08-14T08:06:19.886Z,73.50
2023-08-14T08:08:47.680Z,72.40
2023-08-14T08:11:15.359Z,71.40
2023-08-14T08:13:43.710Z,71.40
2023-08-14T08:16:10.626Z,69.30
2023-08-14T08:18:37.563Z,68.30
2023-08-14T08:21:04.467Z,67.40
2023-08-14T08:23:31.387Z,68.70
2023-08-14T08:25:58.201Z,68.50
2023-08-14T08:28:25.015Z,65.60
2023-08-14T08:30:51.745Z,67.20
2023-08-14T08:33:26.860Z,66.90
2023-08-14T08:35:54.222Z,66.80
2023-08-14T08:38:21.038Z,66.20
2023-08-14T08:40:50.534Z,65.10
2023-08-14T08:43:17.942Z,65.20
2023-08-14T08:45:50.552Z,64.50
2023-08-14T08:48:22.142Z,63.00
2023-08-14T08:50:51.143Z,60.90
2023-08-14T08:53:21.320Z,59.20
2023-08-14T08:55:50.360Z,59.40
2023-08-14T08:58:17.937Z,59.40
2023-08-14T09:00:45.048Z,60.10
2023-08-14T09:03:13.925Z,59.40
2023-08-14T09:05:42.361Z,59.50
2023-08-14T09:08:11.897Z,58.20
2023-08-14T09:10:38.919Z,58.70
2023-08-14T09:13:09.362Z,58.90
2023-08-14T09:15:42.313Z,57.30
2023-08-14T09:18:10.676Z,55.60
2023-08-14T09:20:38.863Z,55.80
2023-08-14T09:23:05.674Z,57.20
2023-08-14T09:25:32.521Z,57.90
2023-08-14T09:27:59.495Z,58.40
2023-08-14T09:30:27.418Z,57.50
2023-08-14T09:32:57.173Z,57.10
2023-08-14T09:35:24.204Z,56.30
2023-08-14T09:37:51.377Z,56.60
2023-08-14T09:40:19.042Z,57.50
2023-08-14T09:42:47.704Z,57.80
2023-08-14T09:45:16.464Z,57.60
2023-08-14T09:47:46.297Z,56.80
2023-08-14T09:50:14.665Z,56.50
2023-08-14T09:52:41.818Z,57.00
2023-08-14T09:55:11.485Z,57.60
2023-08-14T09:57:38.723Z,56.20
2023-08-14T10:00:06.413Z,53.40
2023-08-14T10:02:34.393Z,54.70
2023-08-14T10:05:05.019Z,53.00
2023-08-14T10:07:33.710Z,53.60
2023-08-14T10:10:03.376Z,54.60
2023-08-14T10:12:33.333Z,54.50
2023-08-14T10:15:11.202Z,53.80
2023-08-14T10:17:52.077Z,53.80
2023-08-14T10:20:23.181Z,54.40
2023-08-14T10:22:53.665Z,53.70
2023-08-14T10:25:24.694Z,54.30
2023-08-14T10:27:52.745Z,53.90
2023-08-14T10:30:23.970Z,53.70
2023-08-14T10:32:52.744Z,53.00
2023-08-14T10:35:22.146Z,53.30
2023-08-14T10:38:04.520Z,53.30
2023-08-14T10:40:37.001Z,54.90
2023-08-14T10:43:06.730Z,54.50
2023-08-14T10:45:34.424Z,55.30
2023-08-14T10:48:09.804Z,55.10
2023-08-14T10:50:36.921Z,54.10
2023-08-14T10:53:05.707Z,53.40
2023-08-14T10:55:40.498Z,53.00
2023-08-14T10:58:29.200Z,52.30
2023-08-14T11:01:04.283Z,51.60
2023-08-14T11:03:33.535Z,51.30
2023-08-14T11:06:00.471Z,51.10
2023-08-14T11:08:30.939Z,53.10
2023-08-14T11:10:59.352Z,54.00
2023-08-14T11:13:31.629Z,53.00
2023-08-14T11:15:59.764Z,53.00
2023-08-14T11:18:28.168Z,53.00
2023-08-14T11:21:07.200Z,53.30
2023-08-14T11:23:41.376Z,53.10
2023-08-14T11:26:08.614Z,53.50
2023-08-14T11:28:35.891Z,52.00
2023-08-14T11:31:02.723Z,52.20
2023-08-14T11:33:31.751Z,51.00
2023-08-14T11:36:04.086Z,51.90
2023-08-14T11:38:38.130Z,52.00
2023-08-14T11:41:05.151Z,53.80
2023-08-14T11:43:31.902Z,53.00
2023-08-14T11:45:58.741Z,52.30
2023-08-14T11:48:26.300Z,53.10
2023-08-14T11:50:53.892Z,52.00
2023-08-14T11:53:21.731Z,52.20
2023-08-14T11:55:48.592Z,52.10
2023-08-14T11:58:15.467Z,51.30
2023-08-14T12:00:43.260Z,52.10
2023-08-14T12:03:11.336Z,52.10
2023-08-14T12:05:38.293Z,52.00
2023-08-14T12:08:05.389Z,51.10
2023-08-14T12:10:33.838Z,50.90
2023-08-14T12:13:00.648Z,51.90
2023-08-14T12:15:27.427Z,52.80
2023-08-14T12:17:54.342Z,52.30
2023-08-14T12:20:23.353Z,51.80
2023-08-14T12:22:59.468Z,51.80
2023-08-14T12:25:29.316Z,51.60
2023-08-14T12:27:56.165Z,51.00
2023-08-14T12:30:22.962Z,50.60
2023-08-14T12:32:49.865Z,48.60
2023-08-14T12:35:17.296Z,48.50
2023-08-14T12:37:44.116Z,47.60
2023-08-14T12:40:11.781Z,50.80
2023-08-14T12:42:39.745Z,52.50
2023-08-14T12:45:07.445Z,54.30
2023-08-14T12:47:34.405Z,55.10
2023-08-14T12:50:01.295Z,53.60
2023-08-14T12:52:29.578Z,52.50
2023-08-14T12:57:28.383Z,55.10
2023-08-14T13:04:57.833Z,54.60
2023-08-14T13:07:29.037Z,53.70
2023-08-14T13:09:56.561Z,54.40
2023-08-14T13:12:23.419Z,54.80
2023-08-14T13:14:50.442Z,54.60
2023-08-14T13:17:17.724Z,54.10
2023-08-14T13:19:44.783Z,54.10
2023-08-14T13:22:13.893Z,54.50
2023-08-14T13:24:40.664Z,53.50
2023-08-14T13:27:16.302Z,53.10
2023-08-14T13:29:44.085Z,53.30
2023-08-14T13:32:11.002Z,55.10
2023-08-14T13:34:37.813Z,57.00
2023-08-14T13:37:04.843Z,59.40
2023-08-14T13:39:31.721Z,59.90
2023-08-14T13:41:58.488Z,60.70
2023-08-14T13:44:26.325Z,61.00
2023-08-14T13:46:53.105Z,60.90
2023-08-14T13:49:19.921Z,61.00
2023-08-14T13:51:47.995Z,61.80
2023-08-14T13:54:14.834Z,61.90
2023-08-14T13:56:41.625Z,62.20
2023-08-14T13:59:08.402Z,63.30
2023-08-14T14:01:35.174Z,64.30
2023-08-14T14:04:02.052Z,65.60
2023-08-14T14:06:28.856Z,64.20
2023-08-14T14:08:55.647Z,64.70
2023-08-14T14:11:22.979Z,66.00
2023-08-14T14:13:49.789Z,65.40
2023-08-14T14:16:23.097Z,66.00
2023-08-14T14:18:51.280Z,66.70
2023-08-14T14:21:18.084Z,67.20
2023-08-14T14:23:44.797Z,65.70
2023-08-14T14:26:11.606Z,66.10
2023-08-14T14:28:38.375Z,66.30
2023-08-14T14:31:05.165Z,66.90
2023-08-14T14:33:31.904Z,66.30
2023-08-14T14:35:58.704Z,65.70
2023-08-14T14:38:25.677Z,66.00
2023-08-14T14:40:52.448Z,65.50
2023-08-14T14:43:19.165Z,64.70
2023-08-14T14:45:45.985Z,65.50
2023-08-14T14:48:12.771Z,65.80
2023-08-14T14:50:39.519Z,66.40
2023-08-14T14:53:06.587Z,66.60
2023-08-14T14:55:33.400Z,66.00
2023-08-14T14:58:00.270Z,66.80
2023-08-14T15:00:27.264Z,66.10
2023-08-14T15:02:54.412Z,67.80
2023-08-14T15:05:28.393Z,67.30
2023-08-14T15:07:56.715Z,67.30
2023-08-14T15:10:23.826Z,68.20
2023-08-14T15:12:50.648Z,67.10
2023-08-14T15:15:17.536Z,67.00
2023-08-14T15:17:45.315Z,67.70
2023-08-14T15:20:13.795Z,67.50
2023-08-14T15:22:40.896Z,68.20
2023-08-14T15:25:09.072Z,68.60
2023-08-14T15:27:36.293Z,68.60
2023-08-14T15:30:03.868Z,68.90
2023-08-14T15:32:30.993Z,67.10
2023-08-14T15:34:57.818Z,68.20
2023-08-14T15:37:24.650Z,68.20
2023-08-14T15:39:52.044Z,68.70
2023-08-14T15:42:19.202Z,70.00
2023-08-14T15:44:46.012Z,69.10
2023-08-14T15:47:13.121Z,69.00
2023-08-14T15:49:40.244Z,69.40
2023-08-14T15:52:07.102Z,69.40
2023-08-14T15:54:47.404Z,68.40
2023-08-14T15:57:20.092Z,69.20
2023-08-14T15:59:47.417Z,69.80
2023-08-14T16:02:14.448Z,71.70
2023-08-14T16:04:41.926Z,72.20
2023-08-14T16:07:08.850Z,70.90
2023-08-14T16:09:35.720Z,72.60
2023-08-14T16:12:02.944Z,73.60
2023-08-14T16:14:29.806Z,73.10
2023-08-14T16:16:57.978Z,73.80
2023-08-14T16:19:25.069Z,73.50
2023-08-14T16:21:51.823Z,73.90
2023-08-14T16:24:18.764Z,74.00
2023-08-14T16:26:45.510Z,74.30
2023-08-14T16:29:12.693Z,73.90
2023-08-14T16:31:39.478Z,75.00
2023-08-14T16:34:06.228Z,74.90
2023-08-14T16:36:33.087Z,75.40
2023-08-14T16:38:59.930Z,76.10
2023-08-14T16:41:26.805Z,75.40
2023-08-14T16:43:53.641Z,76.20
2023-08-14T16:46:20.427Z,77.50
2023-08-14T16:48:48.109Z,77.70
2023-08-14T16:51:14.886Z,77.10
2023-08-14T16:53:41.629Z,76.70
2023-08-14T16:56:08.534Z,76.70
2023-08-14T16:58:35.324Z,77.70
2023-08-14T17:01:02.201Z,77.80
2023-08-14T17:03:28.985Z,77.40
2023-08-14T17:06:02.715Z,77.30
2023-08-14T17:08:33.920Z,77.40
2023-08-14T17:11:04.567Z,76.60
2023-08-14T17:13:31.825Z,77.20
2023-08-14T17:15:58.714Z,77.50
2023-08-14T17:18:25.686Z,77.40
2023-08-14T17:20:52.463Z,78.10
2023-08-14T17:23:19.862Z,78.80
2023-08-14T17:25:53.873Z,78.80
2023-08-14T17:28:26.068Z,78.90
2023-08-14T17:30:57.131Z,79.60
2023-08-14T17:33:24.768Z,79.70
2023-08-14T17:35:52.607Z,79.70
2023-08-14T17:38:19.520Z,80.60
2023-08-14T17:40:51.054Z,82.20
2023-08-14T17:43:18.714Z,82.20
2023-08-14T17:45:46.861Z,83.10
2023-08-14T17:48:13.732Z,82.80
2023-08-14T17:50:40.506Z,84.00
2023-08-14T17:53:07.426Z,84.20
2023-08-14T17:55:34.294Z,85.30
2023-08-14T17:58:01.133Z,86.20
2023-08-14T18:00:27.956Z,87.50
2023-08-14T18:02:54.807Z,88.30
2023-08-14T18:05:21.652Z,89.20
2023-08-14T18:07:48.751Z,89.20
2023-08-14T18:10:15.680Z,89.50
2023-08-14T18:12:42.586Z,90.10
2023-08-14T18:15:10.178Z,90.60
2023-08-14T18:17:38.061Z,91.20
2023-08-14T18:20:09.268Z,91.70
2023-08-14T18:22:37.068Z,92.20
2023-08-14T18:25:05.433Z,92.40
2023-08-14T18:27:32.303Z,92.50
2023-08-14T18:29:59.293Z,92.70
2023-08-14T18:32:26.075Z,92.90
2023-08-14T18:34:52.857Z,93.10
2023-08-14T18:37:21.597Z,93.50
2023-08-14T18:39:48.685Z,93.90
2023-08-14T18:42:15.505Z,94.00
2023-08-14T18:44:42.264Z,94.10
2023-08-14T18:47:09.118Z,94.30
2023-08-14T18:49:35.981Z,94.70
2023-08-14T18:52:02.800Z,95.00
2023-08-14T18:54:29.667Z,95.90
2023-08-14T18:56:56.568Z,96.10
2023-08-14T18:59:24.264Z,96.20
2023-08-14T19:01:51.905Z,96.30
2023-08-14T19:04:25.802Z,96.60
2023-08-14T19:07:00.022Z,97.10
2023-08-14T19:09:26.858Z,98.00
2023-08-14T19:11:53.630Z,98.70
2023-08-14T19:14:21.482Z,99.00
2023-08-14T19:16:49.234Z,98.90
2023-08-14T19:19:16.029Z,99.20
2023-08-14T19:21:42.779Z,99.60
2023-08-14T19:24:10.534Z,99.90
2023-08-14T19:26:37.310Z,99.90
2023-08-14T19:29:04.720Z,99.90
2023-08-14T19:31:31.575Z,99.90
2023-08-14T19:34:02.594Z,99.90
2023-08-14T19:36:29.841Z,99.90
2023-08-14T19:38:57.441Z,99.90
2023-08-14T19:41:25.406Z,99.90
2023-08-14T19:43:52.362Z,99.90
2023-08-14T19:46:19.254Z,99.90
2023-08-14T19:48:46.072Z,99.90
2023-08-14T19:51:12.861Z,99.90
2023-08-14T19:53:40.658Z,99.90
2023-08-14T19:56:07.716Z,99.90
2023-08-14T19:58:34.527Z,99.90
2023-08-14T20:01:02.229Z,99.90
2023-08-14T20:03:29.209Z,99.90
2023-08-14T20:05:56.036Z,99.90
2023-08-14T20:08:24.499Z,99.90
2023-08-14T20:10:51.728Z,99.90
2023-08-14T20:13:18.694Z,99.90
2023-08-14T20:15:48.826Z,99.90
2023-08-14T20:18:16.277Z,99.90
2023-08-14T20:20:44.044Z,99.90
2023-08-14T20:23:11.693Z,99.90
2023-08-14T20:25:38.818Z,99.90
2023-08-14T20:28:06.826Z,99.90
2023-08-14T20:30:42.966Z,99.90
2023-08-14T20:33:10.960Z,99.90
2023-08-14T20:35:45.823Z,99.90
2023-08-14T20:38:13.563Z,99.90
2023-08-14T20:40:40.866Z,99.90
2023-08-14T20:43:13.515Z,99.90
2023-08-14T20:45:41.432Z,99.90
2023-08-14T20:48:08.783Z,99.90
2023-08-14T20:50:36.740Z,99.90
2023-08-14T20:53:04.588Z,99.90
2023-08-14T20:55:31.444Z,99.90
2023-08-14T20:57:58.325Z,99.90
2023-08-14T21:00:25.109Z,99.90
2023-08-14T21:02:51.998Z,99.90
2023-08-14T21:05:19.021Z,99.90
2023-08-14T21:07:45.903Z,99.90
2023-08-14T21:10:13.324Z,99.90
2023-08-14T21:12:40.066Z,99.90
2023-08-14T21:15:07.389Z,99.90
2023-08-14T21:17:34.314Z,99.90
2023-08-14T21:20:04.702Z,99.90
2023-08-14T21:22:33.577Z,99.90
2023-08-14T21:25:00.332Z,99.90
2023-08-14T21:27:30.871Z,99.90
2023-08-14T21:29:59.811Z,99.90
2023-08-14T21:32:26.724Z,99.90
2023-08-14T21:34:53.584Z,99.90
2023-08-14T21:37:20.755Z,99.90
2023-08-14T21:39:47.974Z,99.90
2023-08-14T21:42:14.787Z,99.90
2023-08-14T21:44:42.022Z,99.90
2023-08-14T21:47:08.787Z,99.90
2023-08-14T21:49:35.675Z,99.90
2023-08-14T21:52:02.451Z,99.90
2023-08-14T21:54:31.801Z,99.90
2023-08-14T21:56:59.733Z,99.90
2023-08-14T21:59:26.537Z,99.90
2023-08-14T22:01:53.936Z,99.90
2023-08-14T22:04:22.147Z,99.90
2023-08-14T22:06:49.032Z,99.90
2023-08-14T22:09:16.179Z,99.90
2023-08-14T22:11:44.068Z,99.90
2023-08-14T22:14:13.994Z,99.90
2023-08-14T22:16:40.773Z,99.90
2023-08-14T22:19:07.588Z,99.90
2023-08-14T22:21:34.897Z,99.90
2023-08-14T22:24:01.644Z,99.90
2023-08-14T22:26:28.402Z,99.90
2023-08-14T22:28:55.108Z,99.90
2023-08-14T22:31:22.748Z,99.90
2023-08-14T22:33:49.601Z,99.90
2023-08-14T22:36:16.412Z,99.90
2023-08-14T22:38:43.246Z,99.90
2023-08-14T22:41:10.035Z,99.90
2023-08-14T22:43:36.781Z,99.90
2023-08-14T22:46:03.504Z,99.90
2023-08-14T22:48:30.319Z,99.90
2023-08-14T22:50:57.085Z,99.90
2023-08-14T22:53:24.898Z,99.90
2023-08-14T22:55:51.770Z,99.90
2023-08-14T22:58:18.847Z,99.90
2023-08-14T23:00:45.956Z,99.90
2023-08-14T23:03:12.783Z,99.90
2023-08-14T23:05:39.590Z,99.90
2023-08-14T23:08:06.746Z,99.90
2023-08-14T23:10:34.454Z,99.90
2023-08-14T23:13:02.234Z,99.90
2023-08-14T23:15:28.981Z,99.90
2023-08-14T23:17:55.830Z,99.90
2023-08-14T23:20:22.633Z,99.90
2023-08-14T23:22:49.553Z,99.90
2023-08-14T23:25:16.532Z,99.90
2023-08-14T23:27:43.364Z,99.90
2023-08-14T23:30:11.227Z,99.90
2023-08-14T23:32:38.069Z,99.90
2023-08-14T23:35:05.756Z,99.90
2023-08-14T23:37:32.627Z,99.90
2023-08-14T23:39:59.525Z,99.90
2023-08-14T23:42:26.371Z,99.90
2023-08-14T23:44:53.323Z,99.90
2023-08-14T23:47:20.389Z,99.90
2023-08-14T23:49:48.297Z,99.90
2023-08-14T23:52:15.104Z,99.90
2023-08-14T23:54:42.908Z,99.90
2023-08-14T23:57:09.663Z,99.90
2023-08-14T23:59:36.505Z,99.90
